createdAt,value
2022-08-05T00:00:49.976Z,40.78
2022-08-05T00:03:16.951Z,40.73
2022-08-05T00:06:06.701Z,40.73
2022-08-05T00:08:35.584Z,40.73
2022-08-05T00:11:20.265Z,41.26
2022-08-05T00:13:52.935Z,41.26
2022-08-05T00:16:35.631Z,41.25
2022-08-05T00:19:04.024Z,41.20
2022-08-05T00:21:30.829Z,41.51
2022-08-05T00:24:09.871Z,41.34
2022-08-05T00:26:38.530Z,42.00
2022-08-05T00:29:05.211Z,41.97
2022-08-05T00:31:53.962Z,42.05
2022-08-05T00:34:55.706Z,41.94
2022-08-05T00:37:11.459Z,42.44
2022-08-05T00:39:44.330Z,42.59
2022-08-05T00:42:36.628Z,42.90
2022-08-05T00:45:08.498Z,42.74
2022-08-05T00:47:53.434Z,42.76
2022-08-05T00:50:25.365Z,43.08
2022-08-05T00:52:53.349Z,42.60
2022-08-05T00:55:22.340Z,42.90
2022-08-05T00:57:58.690Z,42.86
2022-08-05T01:00:30.194Z,42.98
2022-08-05T01:02:59.807Z,43.32
2022-08-05T01:05:27.528Z,43.79
2022-08-05T01:08:42.834Z,43.49
2022-08-05T01:10:52.968Z,43.94
2022-08-05T01:13:57.577Z,43.74
2022-08-05T01:16:48.001Z,43.97
2022-08-05T01:19:56.561Z,44.15
2022-08-05T01:22:31.983Z,44.37
2022-08-05T01:25:39.959Z,44.54
2022-08-05T01:28:16.587Z,44.55
2022-08-05T01:30:59.227Z,44.92
2022-08-05T01:33:35.615Z,44.97
2022-08-05T01:36:13.080Z,45.26
2022-08-05T01:38:46.307Z,44.85
2022-08-05T01:41:18.196Z,44.65
2022-08-05T01:43:50.962Z,44.73
2022-08-05T01:46:42.791Z,45.56
2022-08-05T01:49:22.923Z,45.65
2022-08-05T01:51:54.785Z,45.47
2022-08-05T01:54:27.143Z,46.15
2022-08-05T01:58:13.190Z,45.68
2022-08-05T01:59:47.031Z,45.97
2022-08-05T02:02:15.927Z,45.94
2022-08-05T02:04:46.116Z,46.51
2022-08-05T02:07:21.918Z,46.17
2022-08-05T02:09:50.988Z,46.25
2022-08-05T02:12:29.738Z,46.64
2022-08-05T02:15:05.794Z,47.17
2022-08-05T02:18:31.686Z,46.46
2022-08-05T02:20:44.127Z,47.03
2022-08-05T02:23:14.960Z,46.76
2022-08-05T02:25:49.729Z,47.01
2022-08-05T02:28:29.074Z,46.96
2022-08-05T02:31:02.511Z,46.86
2022-08-05T02:33:36.104Z,47.08
2022-08-05T02:36:09.454Z,47.46
2022-08-05T02:38:37.920Z,47.58
2022-08-05T02:41:17.027Z,47.22
2022-08-05T02:44:06.504Z,47.27
2022-08-05T02:46:33.667Z,47.04
2022-08-05T02:49:01.849Z,47.11
2022-08-05T02:52:03.190Z,47.10
2022-08-05T02:54:34.782Z,47.45
2022-08-05T02:57:09.789Z,46.91
2022-08-05T02:59:50.288Z,47.17
2022-08-05T03:02:27.682Z,47.64
2022-08-05T03:04:57.405Z,47.09
2022-08-05T03:08:00.331Z,46.78
2022-08-05T03:10:16.012Z,47.65
2022-08-05T03:12:51.980Z,47.15
2022-08-05T03:15:20.055Z,47.36
2022-08-05T03:17:46.581Z,47.86
2022-08-05T03:20:13.390Z,47.68
2022-08-05T03:22:44.076Z,48.01
2022-08-05T03:25:32.742Z,47.65
2022-08-05T03:28:02.696Z,48.21
2022-08-05T03:30:34.163Z,48.31
2022-08-05T03:33:05.579Z,47.97
2022-08-05T03:35:33.759Z,48.09
2022-08-05T03:38:07.277Z,47.82
2022-08-05T03:40:34.435Z,47.74
2022-08-05T03:43:58.240Z,48.56
2022-08-05T03:45:58.099Z,47.65
2022-08-05T03:48:29.230Z,48.58
2022-08-05T03:52:38.147Z,47.76
2022-08-05T03:55:53.477Z,47.23
2022-08-05T03:57:41.356Z,47.96
2022-08-05T04:00:07.330Z,47.34
2022-08-05T04:02:38.166Z,48.15
2022-08-05T04:05:09.829Z,47.58
2022-08-05T04:07:57.706Z,47.34
2022-08-05T04:10:28.336Z,48.30
2022-08-05T04:12:59.229Z,48.33
2022-08-05T04:15:28.011Z,48.26
2022-08-05T04:18:03.969Z,47.90
2022-08-05T04:20:34.388Z,47.81
2022-08-05T04:23:01.600Z,47.66
2022-08-05T04:25:56.737Z,48.56
2022-08-05T04:28:15.020Z,47.98
2022-08-05T04:30:43.757Z,48.52
2022-08-05T04:33:10.318Z,48.69
2022-08-05T04:36:16.212Z,47.84
2022-08-05T04:38:39.498Z,48.49
2022-08-05T04:41:09.561Z,48.69
2022-08-05T04:43:37.779Z,48.75
2022-08-05T04:46:07.385Z,49.24
2022-08-05T04:48:34.130Z,48.34
2022-08-05T04:51:11.119Z,48.28
2022-08-05T04:53:39.046Z,49.17
2022-08-05T04:56:33.487Z,48.84
2022-08-05T04:58:56.018Z,49.25
2022-08-05T05:02:05.523Z,49.95
2022-08-05T05:04:10.129Z,49.69
2022-08-05T05:06:44.665Z,50.12
2022-08-05T05:09:17.556Z,49.78
2022-08-05T05:11:55.422Z,50.37
2022-08-05T05:14:27.776Z,50.89
2022-08-05T05:17:03.393Z,50.72
2022-08-05T05:19:37.157Z,51.02
2022-08-05T05:22:24.397Z,51.14
2022-08-05T05:24:56.957Z,50.87
2022-08-05T05:27:45.682Z,51.45
2022-08-05T05:30:15.560Z,53.68
2022-08-05T05:32:56.842Z,51.95
2022-08-05T05:35:27.017Z,51.72
2022-08-05T05:38:01.740Z,52.77
2022-08-05T05:40:32.035Z,51.61
2022-08-05T05:42:59.654Z,50.76
2022-08-05T05:45:28.826Z,50.57
2022-08-05T05:48:06.113Z,49.84
2022-08-05T05:50:44.003Z,49.25
2022-08-05T05:53:21.473Z,48.18
2022-08-05T05:55:52.126Z,48.30
2022-08-05T05:58:30.298Z,47.83
2022-08-05T06:01:02.108Z,47.95
2022-08-05T06:03:53.908Z,48.84
2022-08-05T06:06:28.085Z,48.87
2022-08-05T06:08:57.410Z,49.08
2022-08-05T06:11:24.027Z,49.51
2022-08-05T06:13:54.109Z,49.27
2022-08-05T06:16:29.028Z,49.32
2022-08-05T06:19:00.889Z,50.21
2022-08-05T06:21:36.523Z,50.13
2022-08-05T06:24:12.359Z,50.37
2022-08-05T06:26:52.185Z,49.78
2022-08-05T06:29:25.248Z,50.28
2022-08-05T06:32:25.609Z,49.41
2022-08-05T06:34:56.432Z,49.56
2022-08-05T06:37:56.788Z,48.92
2022-08-05T06:40:12.128Z,49.52
2022-08-05T06:42:39.916Z,48.99
2022-08-05T06:45:09.081Z,48.85
2022-08-05T06:48:37.078Z,48.38
2022-08-05T06:50:24.875Z,48.27
2022-08-05T06:52:58.428Z,48.06
2022-08-05T06:55:25.680Z,47.84
2022-08-05T06:57:57.327Z,46.64
2022-08-05T07:00:31.346Z,47.21
2022-08-05T07:02:57.931Z,47.18
2022-08-05T07:05:31.800Z,46.63
2022-08-05T07:08:03.823Z,46.51
2022-08-05T07:10:32.766Z,46.25
2022-08-05T07:13:18.179Z,46.47
2022-08-05T07:17:57.276Z,45.40
2022-08-05T07:19:09.721Z,45.83
2022-08-05T07:22:00.442Z,45.46
2022-08-05T07:24:23.252Z,44.87
2022-08-05T07:26:55.212Z,45.44
2022-08-05T07:30:21.923Z,44.65
2022-08-05T07:32:08.431Z,44.65
2022-08-05T07:34:37.216Z,44.09
2022-08-05T07:37:09.087Z,43.65
2022-08-05T07:40:26.527Z,43.28
2022-08-05T07:42:31.800Z,43.17
2022-08-05T07:45:04.097Z,42.80
2022-08-05T07:47:42.324Z,42.16
2022-08-05T07:50:09.646Z,41.53
2022-08-05T07:52:46.762Z,41.12
2022-08-05T07:55:16.021Z,41.16
2022-08-05T07:58:03.255Z,40.81
2022-08-05T08:00:30.918Z,41.16
2022-08-05T08:03:14.173Z,40.32
2022-08-05T08:05:49.400Z,39.76
2022-08-05T08:08:17.119Z,39.62
2022-08-05T08:10:48.903Z,39.37
2022-08-05T08:13:22.037Z,40.07
2022-08-05T08:16:35.424Z,39.63
2022-08-05T08:18:42.464Z,39.41
2022-08-05T08:21:17.604Z,36.76
2022-08-05T08:24:02.310Z,38.39
2022-08-05T08:26:31.248Z,38.08
2022-08-05T08:29:21.883Z,37.31
2022-08-05T08:31:48.326Z,37.63
2022-08-05T08:34:15.442Z,37.07
2022-08-05T08:36:47.594Z,37.26
2022-08-05T08:39:19.598Z,37.09
2022-08-05T08:41:50.624Z,37.05
2022-08-05T08:45:23.884Z,36.96
2022-08-05T08:47:47.061Z,36.62
2022-08-05T08:50:08.873Z,35.56
2022-08-05T08:52:51.759Z,34.57
2022-08-05T08:56:02.848Z,35.94
2022-08-05T08:58:08.974Z,35.42
2022-08-05T09:00:36.518Z,35.19
2022-08-05T09:03:06.833Z,35.03
2022-08-05T09:05:38.913Z,34.99
2022-08-05T09:08:20.233Z,34.57
2022-08-05T09:10:53.393Z,34.65
2022-08-05T09:13:20.159Z,34.95
2022-08-05T09:15:51.172Z,34.57
2022-08-05T09:18:17.841Z,34.74
2022-08-05T09:20:45.873Z,33.28
2022-08-05T09:23:19.028Z,32.61
2022-08-05T09:26:02.156Z,31.23
2022-08-05T09:28:33.461Z,31.25
2022-08-05T09:31:23.529Z,31.05
2022-08-05T09:33:59.671Z,31.24
2022-08-05T09:36:54.930Z,29.51
2022-08-05T09:39:27.658Z,30.10
2022-08-05T09:42:08.792Z,29.96
2022-08-05T09:44:42.561Z,28.31
2022-08-05T09:47:16.500Z,29.27
2022-08-05T09:50:02.429Z,28.04
2022-08-05T09:52:32.703Z,28.79
2022-08-05T09:55:55.599Z,28.96
2022-08-05T09:57:48.464Z,28.23
2022-08-05T10:00:15.209Z,27.37
2022-08-05T10:02:50.188Z,28.09
2022-08-05T10:05:22.635Z,27.84
2022-08-05T10:08:35.379Z,27.92
2022-08-05T10:10:45.704Z,27.39
2022-08-05T10:13:47.222Z,26.75
2022-08-05T10:16:41.852Z,25.13
2022-08-05T10:19:23.616Z,26.26
2022-08-05T10:22:09.061Z,25.86
2022-08-05T10:24:42.387Z,26.06
2022-08-05T10:27:15.031Z,26.10
2022-08-05T10:30:06.638Z,26.08
2022-08-05T10:33:01.293Z,25.16
2022-08-05T10:35:19.217Z,24.60
2022-08-05T10:37:47.451Z,24.00
2022-08-05T10:40:34.678Z,24.44
2022-08-05T10:43:46.967Z,24.19
2022-08-05T10:46:18.411Z,23.43
2022-08-05T10:49:01.538Z,23.24
2022-08-05T10:51:57.661Z,24.07
2022-08-05T10:54:56.409Z,24.25
2022-08-05T10:57:29.382Z,23.14
2022-08-05T11:00:13.383Z,22.82
2022-08-05T11:03:23.482Z,22.99
2022-08-05T11:06:15.283Z,23.98
2022-08-05T11:09:18.585Z,23.70
2022-08-05T11:11:53.964Z,24.79
2022-08-05T11:14:57.438Z,24.33
2022-08-05T11:17:58.676Z,24.96
2022-08-05T11:20:37.307Z,23.53
2022-08-05T11:24:02.795Z,24.05
2022-08-05T11:26:28.343Z,23.99
2022-08-05T11:29:06.602Z,23.59
2022-08-05T11:31:58.660Z,23.20
2022-08-05T11:34:50.737Z,23.54
2022-08-05T11:38:29.936Z,22.04
2022-08-05T11:41:36.879Z,22.33
2022-08-05T11:44:05.755Z,22.81
2022-08-05T11:47:09.218Z,21.87
2022-08-05T11:49:26.194Z,22.38
2022-08-05T11:51:53.528Z,21.55
2022-08-05T11:54:32.898Z,20.79
2022-08-05T11:57:08.447Z,21.06
2022-08-05T11:59:50.633Z,21.68
2022-08-05T12:02:30.583Z,20.76
2022-08-05T12:05:00.412Z,21.83
2022-08-05T12:08:04.414Z,20.53
2022-08-05T12:10:38.388Z,21.21
2022-08-05T12:13:18.697Z,21.40
2022-08-05T12:16:14.974Z,19.98
2022-08-05T12:18:49.384Z,20.50
2022-08-05T12:21:24.036Z,21.07
2022-08-05T12:23:53.671Z,20.87
2022-08-05T12:26:20.557Z,20.64
2022-08-05T12:28:50.703Z,21.13
2022-08-05T12:31:28.056Z,21.49
2022-08-05T12:34:06.235Z,21.51
2022-08-05T12:36:33.534Z,21.03
2022-08-05T12:39:03.031Z,21.44
2022-08-05T12:41:44.001Z,21.65
2022-08-05T12:44:14.425Z,20.99
2022-08-05T12:46:53.451Z,21.14
2022-08-05T12:49:25.597Z,21.86
2022-08-05T12:52:12.897Z,21.91
2022-08-05T12:54:49.682Z,22.13
2022-08-05T12:57:17.941Z,22.62
2022-08-05T13:01:57.003Z,22.91
2022-08-05T13:02:36.207Z,22.95
2022-08-05T13:05:06.259Z,22.34
2022-08-05T13:08:00.204Z,21.56
2022-08-05T13:10:20.455Z,21.79
2022-08-05T13:12:51.284Z,20.49
2022-08-05T13:15:41.310Z,20.49
2022-08-05T13:18:19.682Z,21.68
2022-08-05T13:20:49.742Z,21.52
2022-08-05T13:23:22.104Z,21.46
2022-08-05T13:25:51.945Z,21.65
2022-08-05T13:28:26.974Z,22.52
2022-08-05T13:30:53.748Z,22.61
2022-08-05T13:34:21.361Z,23.38
2022-08-05T13:36:09.309Z,23.24
2022-08-05T13:38:41.950Z,23.22
2022-08-05T13:41:12.442Z,23.33
2022-08-05T13:43:43.962Z,23.29
2022-08-05T13:46:13.351Z,22.23
2022-08-05T13:48:57.575Z,22.21
2022-08-05T13:51:29.535Z,22.29
2022-08-05T13:54:03.577Z,21.63
2022-08-05T13:56:45.536Z,22.09
2022-08-05T13:59:21.051Z,21.08
2022-08-05T14:01:57.528Z,21.60
2022-08-05T14:04:51.394Z,21.65
2022-08-05T14:08:00.111Z,22.87
2022-08-05T14:10:28.129Z,21.46
2022-08-05T14:12:57.052Z,21.93
2022-08-05T14:16:07.091Z,22.67
2022-08-05T14:18:17.727Z,23.25
2022-08-05T14:20:47.695Z,23.42
2022-08-05T14:23:25.177Z,23.81
2022-08-05T14:25:54.558Z,23.56
2022-08-05T14:28:26.206Z,24.15
2022-08-05T14:30:54.773Z,23.74
2022-08-05T14:33:23.057Z,23.68
2022-08-05T14:35:51.908Z,24.18
2022-08-05T14:38:31.735Z,24.02
2022-08-05T14:41:01.515Z,24.19
2022-08-05T14:43:59.191Z,23.38
2022-08-05T14:46:18.923Z,21.91
2022-08-05T14:48:49.851Z,22.02
2022-08-05T14:51:17.703Z,21.36
2022-08-05T14:53:45.361Z,21.60
2022-08-05T14:56:31.848Z,20.23
2022-08-05T14:58:58.350Z,19.29
2022-08-05T15:01:49.141Z,19.72
2022-08-05T15:04:11.878Z,19.55
2022-08-05T15:06:39.119Z,18.88
2022-08-05T15:09:07.501Z,19.05
2022-08-05T15:11:51.771Z,19.44
2022-08-05T15:14:34.979Z,20.80
2022-08-05T15:17:44.836Z,21.56
2022-08-05T15:19:55.464Z,21.83
2022-08-05T15:22:22.213Z,21.15
2022-08-05T15:24:54.302Z,20.38
2022-08-05T15:27:20.901Z,20.37
2022-08-05T15:29:47.528Z,20.37
2022-08-05T15:32:16.487Z,19.73
2022-08-05T15:34:43.163Z,20.42
2022-08-05T15:37:14.749Z,19.95
2022-08-05T15:40:59.776Z,20.00
2022-08-05T15:42:58.272Z,20.32
2022-08-05T15:45:16.956Z,20.12
2022-08-05T15:47:45.752Z,20.56
2022-08-05T15:50:16.002Z,20.67
2022-08-05T15:52:53.440Z,21.54
2022-08-05T15:55:24.837Z,21.72
2022-08-05T15:58:16.831Z,22.28
2022-08-05T16:01:04.177Z,22.77
2022-08-05T16:03:30.670Z,22.86
2022-08-05T16:06:00.628Z,23.19
2022-08-05T16:08:30.805Z,23.29
2022-08-05T16:10:58.612Z,23.48
2022-08-05T16:13:31.934Z,23.48
2022-08-05T16:16:05.887Z,23.80
2022-08-05T16:18:35.209Z,23.81
2022-08-05T16:21:18.703Z,23.41
2022-08-05T16:23:54.328Z,22.87
2022-08-05T16:26:26.564Z,22.76
2022-08-05T16:28:55.432Z,23.41
2022-08-05T16:31:22.118Z,23.09
2022-08-05T16:33:49.224Z,23.18
2022-08-05T16:36:20.223Z,23.05
2022-08-05T16:38:54.962Z,22.63
2022-08-05T16:42:15.369Z,22.80
2022-08-05T16:44:17.234Z,22.26
2022-08-05T16:46:55.660Z,22.87
2022-08-05T16:49:23.428Z,22.95
2022-08-05T16:51:51.021Z,23.14
2022-08-05T16:54:23.993Z,23.37
2022-08-05T16:56:54.069Z,23.65
2022-08-05T16:59:20.578Z,24.16
2022-08-05T17:01:54.391Z,23.82
2022-08-05T17:04:27.439Z,23.78
2022-08-05T17:06:59.949Z,24.09
2022-08-05T17:09:38.945Z,24.00
2022-08-05T17:12:17.339Z,24.09
2022-08-05T17:14:49.745Z,23.69
2022-08-05T17:17:16.446Z,23.37
2022-08-05T17:19:46.462Z,23.41
2022-08-05T17:22:24.766Z,23.30
2022-08-05T17:24:58.207Z,23.77
2022-08-05T17:27:25.945Z,24.20
2022-08-05T17:29:59.596Z,23.78
2022-08-05T17:32:27.601Z,23.60
2022-08-05T17:34:54.449Z,23.99
2022-08-05T17:37:40.937Z,24.42
2022-08-05T17:40:12.353Z,24.47
2022-08-05T17:42:41.724Z,24.68
2022-08-05T17:45:20.626Z,24.74
2022-08-05T17:47:54.075Z,25.06
2022-08-05T17:50:28.045Z,25.84
2022-08-05T17:52:58.966Z,25.61
2022-08-05T17:55:34.095Z,26.00
2022-08-05T17:58:02.038Z,25.81
2022-08-05T18:00:30.139Z,26.66
2022-08-05T18:02:57.218Z,26.64
2022-08-05T18:05:27.884Z,26.69
2022-08-05T18:07:54.938Z,26.76
2022-08-05T18:10:23.728Z,26.76
2022-08-05T18:12:50.406Z,27.06
2022-08-05T18:15:17.393Z,26.48
2022-08-05T18:17:58.926Z,26.72
2022-08-05T18:20:29.190Z,27.21
2022-08-05T18:23:08.720Z,27.10
2022-08-05T18:25:38.925Z,27.42
2022-08-05T18:28:06.584Z,27.32
2022-08-05T18:30:33.974Z,27.55
2022-08-05T18:33:01.482Z,27.34
2022-08-05T18:35:59.640Z,27.33
2022-08-05T18:38:19.463Z,27.81
2022-08-05T18:41:59.662Z,27.79
2022-08-05T18:43:43.123Z,27.43
2022-08-05T18:46:20.194Z,27.66
2022-08-05T18:48:51.859Z,28.03
2022-08-05T18:52:03.888Z,28.03
2022-08-05T18:54:30.953Z,28.40
2022-08-05T18:57:00.850Z,28.07
2022-08-05T18:59:43.440Z,28.37
2022-08-05T19:02:28.311Z,28.61
2022-08-05T19:05:02.355Z,28.48
2022-08-05T19:07:47.940Z,28.41
2022-08-05T19:10:18.593Z,29.11
2022-08-05T19:12:53.370Z,28.97
2022-08-05T19:15:56.675Z,29.34
2022-08-05T19:18:09.352Z,29.32
2022-08-05T19:20:41.352Z,29.30
2022-08-05T19:24:05.881Z,29.93
2022-08-05T19:26:01.891Z,30.35
2022-08-05T19:28:30.671Z,30.28
2022-08-05T19:30:57.482Z,30.18
2022-08-05T19:33:35.023Z,30.49
2022-08-05T19:36:02.754Z,30.69
2022-08-05T19:38:32.601Z,30.90
2022-08-05T19:40:59.162Z,31.30
2022-08-05T19:44:04.102Z,31.16
2022-08-05T19:46:16.925Z,32.41
2022-08-05T19:48:56.376Z,32.40
2022-08-05T19:52:04.663Z,33.15
2022-08-05T19:54:21.822Z,33.23
2022-08-05T19:56:55.197Z,34.05
2022-08-05T20:00:01.175Z,33.94
2022-08-05T20:02:08.414Z,34.71
2022-08-05T20:04:35.299Z,34.91
2022-08-05T20:07:02.832Z,35.18
2022-08-05T20:09:29.458Z,35.34
2022-08-05T20:12:16.041Z,35.31
2022-08-05T20:14:45.514Z,35.84
2022-08-05T20:17:16.321Z,35.60
2022-08-05T20:19:42.990Z,35.97
2022-08-05T20:22:09.833Z,35.73
2022-08-05T20:24:36.664Z,36.50
2022-08-05T20:27:11.408Z,36.87
2022-08-05T20:29:38.442Z,36.48
2022-08-05T20:32:06.635Z,37.08
2022-08-05T20:34:33.262Z,36.78
2022-08-05T20:37:00.799Z,36.96
2022-08-05T20:39:35.460Z,36.49
2022-08-05T20:42:03.696Z,36.96
2022-08-05T20:44:31.099Z,37.46
2022-08-05T20:46:59.812Z,36.83
2022-08-05T20:49:27.288Z,37.85
2022-08-05T20:51:55.185Z,37.86
2022-08-05T20:54:24.629Z,38.12
2022-08-05T20:56:52.459Z,37.68
2022-08-05T20:59:26.397Z,37.89
2022-08-05T21:01:57.401Z,38.22
2022-08-05T21:04:26.752Z,38.51
2022-08-05T21:06:53.902Z,38.79
2022-08-05T21:09:20.590Z,38.85
2022-08-05T21:12:08.852Z,38.91
2022-08-05T21:14:34.840Z,38.89
2022-08-05T21:17:05.127Z,39.00
2022-08-05T21:19:47.375Z,38.90
2022-08-05T21:22:18.594Z,38.78
2022-08-05T21:24:51.814Z,38.80
2022-08-05T21:27:20.561Z,38.96
2022-08-05T21:29:52.507Z,39.37
2022-08-05T21:32:20.829Z,39.55
2022-08-05T21:35:08.461Z,39.80
2022-08-05T21:37:41.257Z,39.96
2022-08-05T21:40:13.672Z,39.65
2022-08-05T21:42:44.475Z,40.15
2022-08-05T21:45:12.498Z,39.97
2022-08-05T21:47:56.745Z,39.70
2022-08-05T21:50:26.058Z,40.28
2022-08-05T21:52:53.513Z,40.52
2022-08-05T21:56:01.294Z,40.43
2022-08-05T21:58:07.298Z,40.16
2022-08-05T22:00:38.069Z,40.37
2022-08-05T22:03:07.095Z,40.83
2022-08-05T22:05:49.158Z,40.88
2022-08-05T22:08:22.284Z,40.56
2022-08-05T22:10:51.667Z,41.33
2022-08-05T22:14:34.176Z,41.14
2022-08-05T22:16:20.460Z,41.14
2022-08-05T22:18:53.913Z,41.36
2022-08-05T22:21:25.189Z,41.67
2022-08-05T22:24:39.299Z,41.65
2022-08-05T22:27:16.613Z,41.85
2022-08-05T22:29:44.050Z,41.79
2022-08-05T22:32:12.677Z,42.07
2022-08-05T22:34:44.309Z,42.29
2022-08-05T22:37:12.709Z,41.62
2022-08-05T22:39:39.488Z,42.19
2022-08-05T22:42:10.633Z,42.44
2022-08-05T22:44:39.642Z,42.76
2022-08-05T22:47:06.906Z,42.57
2022-08-05T22:50:23.056Z,42.64
2022-08-05T22:52:32.293Z,43.31
2022-08-05T22:55:01.445Z,42.56
2022-08-05T22:57:34.361Z,42.50
2022-08-05T23:00:07.989Z,43.24
2022-08-05T23:02:46.411Z,43.11
2022-08-05T23:05:14.567Z,43.22
2022-08-05T23:07:45.045Z,43.48
2022-08-05T23:10:12.957Z,43.42
2022-08-05T23:12:39.871Z,43.43
2022-08-05T23:15:10.199Z,44.20
2022-08-05T23:18:02.396Z,44.01
2022-08-05T23:20:25.223Z,44.07
2022-08-05T23:22:56.175Z,44.21
2022-08-05T23:25:51.329Z,43.79
2022-08-05T23:28:10.883Z,43.73
2022-08-05T23:30:40.489Z,44.42
2022-08-05T23:33:21.819Z,43.84
2022-08-05T23:35:55.919Z,44.33
2022-08-05T23:38:23.513Z,43.95
2022-08-05T23:40:52.731Z,44.28
2022-08-05T23:43:25.537Z,43.96
2022-08-05T23:46:19.869Z,45.03
2022-08-05T23:48:59.627Z,44.46
2022-08-05T23:51:54.911Z,44.46
2022-08-05T23:54:30.165Z,45.31
2022-08-05T23:57:03.721Z,44.92
2022-08-05T23:59:37.633Z,45.22
